Eurasian Highway — 7JKY — position and weather

sailwx.info

Track history (hours):
 
Tides and Currents Weather Stations Pressure Air Temp Water Temp Dewpoint Dewpoint Depression Visibility Wind Speed Wind Dir Waves Ship Positions

Eurasian Highway

Last reported at 2016-Sep-28 21:29 UTC. Time now 2016-Sep-30 18:39 UTC.
Position N 39°56' W 030°55'.

Length 199 m; draft 9.5 m.

Type: Cargo ship. MMSI: 432839000.

Date/timePositionNaut miles runAvg speedWind from/ knotsBaromVisibWave heightAir tempDewpointWater temp
2016-Sep-28 21:29N 39°56' W 030°55'3618.6
2016-Sep-28 19:31N 39°50' W 030°09'5418.3
2016-Sep-28 16:34N 39°41' W 028°59'1717.5
2016-Sep-28 15:33N 39°38' W 028°37'5217.5
2016-Sep-28 12:33N 39°28' W 027°30'7217.8
2016-Sep-28 08:32N 39°17' W 025°58'8817.8
2016-Sep-28 03:34N 39°02' W 024°06'1818.0
2016-Sep-28 02:32N 38°59' W 023°43'1817.8
2016-Sep-28 01:33N 38°57' W 023°20'3517.6
2016-Sep-27 23:33N 38°51' W 022°36'57417.9
2016-Sep-26 15:30N 36°28' W 010°54'3115.8
2016-Sep-26 13:31N 36°18' W 010°17'8416.5
2016-Sep-26 08:28N 35°57' W 008°36'27218.2
2016-Sep-25 17:28N 36°19' W 003°00'1718.8
2016-Sep-25 16:33N 36°21' W 002°39'1818.1
2016-Sep-25 15:33N 36°24' W 002°17'2318.5
2016-Sep-25 14:17N 36°38' W 001°54'5418.9
2016-Sep-25 11:27N 37°14' W 001°04'1718.5
2016-Sep-25 10:33N 37°24' W 000°48'1818.4
2016-Sep-25 09:33N 37°37' W 000°30'3618.1
2016-Sep-25 07:33N 38°08' W 000°06'13118.7
2016-Sep-25 00:33N 40°01' E 001°17'3819.0
2016-Sep-24 22:33N 40°35' E 001°41'1818.6
2016-Sep-24 21:34N 40°51' E 001°52'32 2.6
2016-Sep-24 09:14N 41°20' E 002°09'12 1.7
2016-Sep-24 02:08N 41°08' E 002°07'1017.4
2016-Sep-24 01:33N 40°59' E 002°01'1919.2
2016-Sep-24 00:33N 40°43' E 001°48'13319.0
2016-Sep-23 17:32N 38°44' E 000°29'1919.0
2016-Sep-23 16:33N 38°28' E 000°16'2019.6
2016-Sep-23 15:32N 38°12' E 000°02'3919.7
2016-Sep-23 13:33N 37°39' W 000°25'7819.4
2016-Sep-23 09:33N 36°46' W 001°37'5618.7
2016-Sep-23 06:34N 36°19' W 002°37'3819.1
2016-Sep-23 04:33N 36°12' W 003°24'36915.4
2016-Sep-22 04:33N 39°16' W 010°08'69918.4
2016-Sep-20 14:33N 50°30' W 005°45'1919.3
2016-Sep-20 13:33N 50°42' W 005°21'6220.5
2016-Sep-20 10:32N 51°19' W 004°02'3316.9
2016-Sep-20 08:33N 51°22' W 003°09'1312.9
2016-Sep-20 07:33N 51°29' W 002°51'5 4.9
2016-Sep-20 06:33N 51°30' W 002°44'0 0.1
2016-Sep-20 02:33N 51°30' W 002°43'0 0.0
2016-Sep-19 23:33N 51°30' W 002°43'0 0.1
2016-Sep-19 19:33N 51°30' W 002°43'1 0.7
2016-Sep-19 18:33N 51°30' W 002°44'2410.6
2016-Sep-19 16:20N 51°21' W 003°18'3412.1
2016-Sep-19 13:33N 51°18' W 004°12'1514.9
2016-Sep-19 12:33N 51°20' W 004°35'1414.4
2016-Sep-19 11:33N 51°22' W 004°58'46 9.2
2016-Sep-19 06:33N 50°52' W 005°53'5914.5
2016-Sep-19 02:31N 49°56' W 005°26'3517.8
2016-Sep-19 00:33N 49°53' W 004°32'  
Track history (hours):
 
Tides and Currents Weather Stations Pressure Air Temp Water Temp Dewpoint Dewpoint Depression Visibility Wind Speed Wind Dir Waves Ship Positions

Eurasian Highway

Last reported at 2016-Sep-28 21:29 UTC. Time now 2016-Sep-30 18:39 UTC.
Position N 39°56' W 030°55'.

Length 199 m; draft 9.5 m.

Type: Cargo ship. MMSI: 432839000.

Date/timePositionNaut miles runAvg speedWind from/ knotsBaromVisibWave heightAir tempDewpointWater temp
2016-Sep-28 21:29N 39°56' W 030°55'3618.6
2016-Sep-28 19:31N 39°50' W 030°09'5418.3
2016-Sep-28 16:34N 39°41' W 028°59'1717.5
2016-Sep-28 15:33N 39°38' W 028°37'5217.5
2016-Sep-28 12:33N 39°28' W 027°30'7217.8
2016-Sep-28 08:32N 39°17' W 025°58'8817.8
2016-Sep-28 03:34N 39°02' W 024°06'1818.0
2016-Sep-28 02:32N 38°59' W 023°43'1817.8
2016-Sep-28 01:33N 38°57' W 023°20'3517.6
2016-Sep-27 23:33N 38°51' W 022°36'57417.9
2016-Sep-26 15:30N 36°28' W 010°54'3115.8
2016-Sep-26 13:31N 36°18' W 010°17'8416.5
2016-Sep-26 08:28N 35°57' W 008°36'27218.2
2016-Sep-25 17:28N 36°19' W 003°00'1718.8
2016-Sep-25 16:33N 36°21' W 002°39'1818.1
2016-Sep-25 15:33N 36°24' W 002°17'2318.5
2016-Sep-25 14:17N 36°38' W 001°54'5418.9
2016-Sep-25 11:27N 37°14' W 001°04'1718.5
2016-Sep-25 10:33N 37°24' W 000°48'1818.4
2016-Sep-25 09:33N 37°37' W 000°30'3618.1
2016-Sep-25 07:33N 38°08' W 000°06'13118.7
2016-Sep-25 00:33N 40°01' E 001°17'3819.0
2016-Sep-24 22:33N 40°35' E 001°41'1818.6
2016-Sep-24 21:34N 40°51' E 001°52'32 2.6
2016-Sep-24 09:14N 41°20' E 002°09'12 1.7
2016-Sep-24 02:08N 41°08' E 002°07'1017.4
2016-Sep-24 01:33N 40°59' E 002°01'1919.2
2016-Sep-24 00:33N 40°43' E 001°48'13319.0
2016-Sep-23 17:32N 38°44' E 000°29'1919.0
2016-Sep-23 16:33N 38°28' E 000°16'2019.6
2016-Sep-23 15:32N 38°12' E 000°02'3919.7
2016-Sep-23 13:33N 37°39' W 000°25'7819.4
2016-Sep-23 09:33N 36°46' W 001°37'5618.7
2016-Sep-23 06:34N 36°19' W 002°37'3819.1
2016-Sep-23 04:33N 36°12' W 003°24'36915.4
2016-Sep-22 04:33N 39°16' W 010°08'69918.4
2016-Sep-20 14:33N 50°30' W 005°45'1919.3
2016-Sep-20 13:33N 50°42' W 005°21'6220.5
2016-Sep-20 10:32N 51°19' W 004°02'3316.9
2016-Sep-20 08:33N 51°22' W 003°09'1312.9
2016-Sep-20 07:33N 51°29' W 002°51'5 4.9
2016-Sep-20 06:33N 51°30' W 002°44'0 0.1
2016-Sep-20 02:33N 51°30' W 002°43'0 0.0
2016-Sep-19 23:33N 51°30' W 002°43'0 0.1
2016-Sep-19 19:33N 51°30' W 002°43'1 0.7
2016-Sep-19 18:33N 51°30' W 002°44'2410.6
2016-Sep-19 16:20N 51°21' W 003°18'3412.1
2016-Sep-19 13:33N 51°18' W 004°12'1514.9
2016-Sep-19 12:33N 51°20' W 004°35'1414.4
2016-Sep-19 11:33N 51°22' W 004°58'46 9.2
2016-Sep-19 06:33N 50°52' W 005°53'5914.5
2016-Sep-19 02:31N 49°56' W 005°26'3517.8
2016-Sep-19 00:33N 49°53' W 004°32'  

Dump ship's entire track history